KMKO/MKO METAR and TAF weather

Enter ICAO airport designator
Station Type Date Time Source
KMKO METAR 2021/03/04 23:53 UTC NOAA

KMKO 042353Z AUTO 11007KT 10SM CLR 17/03 A2999 RMK AO2 SLP154 T01670028 10222 20167 55011


Station Type Date Time Source
KMKO Decoded METAR 2021/03/04 23:53 UTC NOAA

MUSKOGEE DAVIS FIELD, OK, United States (KMKO) 35-39N 95-22W 185M
Mar 04, 2021 - 06:53 PM EST / 2021.03.04 2353 UTC
Wind: from the ESE (110 degrees) at 8 MPH (7 KT):0
Visibility: 10 mile(s):0
Sky conditions: clear
Temperature: 62.1 F (16.7 C)
Dew Point: 37.0 F (2.8 C)
Relative Humidity: 39%
Pressure (altimeter): 29.99 in. Hg (1015 hPa)
Pressure tendency: 0.03 inches (1.1 hPa) lower than three hours ago
ob: KMKO 042353Z AUTO 11007KT 10SM CLR 17/03 A2999 RMK AO2 SLP154 T01670028 10222 20167 55011
cycle: 0

Station Type Date Time Source
KMKO TAF UTC NOAA

Error!

Example: see airport list